createdAt,value
2024-01-18T00:00:43.998Z,25.50
2024-01-18T00:01:43.936Z,24.00
2024-01-18T00:02:43.924Z,25.40
2024-01-18T00:03:44.029Z,25.50
2024-01-18T00:04:43.965Z,25.60
2024-01-18T00:05:43.930Z,24.70
2024-01-18T00:06:43.988Z,25.10
2024-01-18T00:07:43.873Z,25.20
2024-01-18T00:08:43.887Z,24.90
2024-01-18T00:09:43.857Z,24.60
2024-01-18T00:10:43.846Z,25.70
2024-01-18T00:11:43.830Z,26.80
2024-01-18T00:12:43.836Z,27.40
2024-01-18T00:13:43.826Z,26.30
2024-01-18T00:14:43.804Z,27.70
2024-01-18T00:15:43.928Z,27.60
2024-01-18T00:16:44.387Z,26.70
2024-01-18T00:17:43.822Z,27.00
2024-01-18T00:18:43.902Z,26.90
2024-01-18T00:19:43.857Z,28.30
2024-01-18T00:20:43.743Z,28.60
2024-01-18T00:21:43.734Z,27.90
2024-01-18T00:22:43.739Z,27.90
2024-01-18T00:23:43.712Z,29.70
2024-01-18T00:24:43.699Z,28.60
2024-01-18T00:25:43.701Z,26.60
2024-01-18T00:26:43.695Z,27.60
2024-01-18T00:27:43.677Z,28.20
2024-01-18T00:28:43.674Z,27.50
2024-01-18T00:29:43.647Z,26.80
2024-01-18T00:30:43.693Z,28.00
2024-01-18T00:31:43.637Z,27.40
2024-01-18T00:32:43.664Z,26.90
2024-01-18T00:33:43.644Z,27.20
2024-01-18T00:34:43.603Z,28.70
2024-01-18T00:35:44.643Z,29.00
2024-01-18T00:36:43.732Z,28.00
2024-01-18T00:37:43.563Z,27.20
2024-01-18T00:38:43.554Z,27.40
2024-01-18T00:39:43.582Z,26.40
2024-01-18T00:40:43.546Z,26.10
2024-01-18T00:41:43.536Z,27.20
2024-01-18T00:42:43.610Z,26.10
2024-01-18T00:43:43.502Z,26.50
2024-01-18T00:44:43.498Z,26.80
2024-01-18T00:45:43.573Z,26.20
2024-01-18T00:46:43.481Z,27.30
2024-01-18T00:47:43.511Z,27.20
2024-01-18T00:48:43.598Z,26.80
2024-01-18T00:49:43.480Z,26.90
2024-01-18T00:50:43.432Z,27.40
2024-01-18T00:51:43.462Z,26.60
2024-01-18T00:52:43.405Z,27.10
2024-01-18T00:53:43.397Z,28.50
2024-01-18T00:54:43.380Z,27.70
2024-01-18T00:55:43.417Z,29.00
2024-01-18T00:56:43.357Z,28.90
2024-01-18T00:57:43.346Z,29.50
2024-01-18T00:58:43.342Z,29.60
2024-01-18T00:59:43.342Z,28.70
2024-01-18T01:00:43.392Z,28.30
2024-01-18T01:01:43.314Z,27.50
2024-01-18T01:02:43.322Z,27.80
2024-01-18T01:03:43.303Z,27.90
2024-01-18T01:04:43.343Z,26.90
2024-01-18T01:05:43.293Z,26.70
2024-01-18T01:06:43.274Z,27.60
2024-01-18T01:07:43.282Z,27.00
2024-01-18T01:08:43.234Z,28.50
2024-01-18T01:09:43.276Z,27.80
2024-01-18T01:10:43.218Z,27.50
2024-01-18T01:11:43.212Z,26.30
2024-01-18T01:12:43.193Z,23.70
2024-01-18T01:13:43.197Z,23.30
2024-01-18T01:14:43.206Z,24.50
2024-01-18T01:15:43.193Z,24.60
2024-01-18T01:16:43.153Z,25.20
2024-01-18T01:17:43.143Z,23.00
2024-01-18T01:18:43.168Z,24.30
2024-01-18T01:19:43.197Z,21.70
2024-01-18T01:20:43.112Z,22.30
2024-01-18T01:21:43.116Z,21.70
2024-01-18T01:22:43.089Z,21.00
2024-01-18T01:23:43.347Z,20.80
2024-01-18T01:24:43.103Z,21.70
2024-01-18T01:25:43.055Z,21.50
2024-01-18T01:26:43.041Z,21.40
2024-01-18T01:27:43.031Z,21.30
2024-01-18T01:28:43.041Z,21.40
2024-01-18T01:29:43.014Z,22.50
2024-01-18T01:30:43.101Z,21.90
2024-01-18T01:31:42.999Z,22.60
2024-01-18T01:32:43.045Z,20.50
2024-01-18T01:33:43.079Z,20.90
2024-01-18T01:34:43.013Z,21.90
2024-01-18T01:35:42.950Z,21.70
2024-01-18T01:36:42.937Z,22.60
2024-01-18T01:37:42.946Z,21.10
2024-01-18T01:38:42.931Z,21.90
2024-01-18T01:39:42.914Z,22.40
2024-01-18T01:40:42.903Z,19.70
2024-01-18T01:41:42.893Z,18.40
2024-01-18T01:42:42.956Z,19.80
2024-01-18T01:43:42.869Z,17.20
2024-01-18T01:44:42.871Z,19.40
2024-01-18T01:45:42.878Z,18.80
2024-01-18T01:46:42.841Z,16.00
2024-01-18T01:47:42.869Z,16.90
2024-01-18T01:48:42.903Z,18.00
2024-01-18T01:49:42.890Z,18.00
2024-01-18T01:50:42.800Z,16.80
2024-01-18T01:51:42.849Z,15.60
2024-01-18T01:52:42.799Z,15.50
2024-01-18T01:53:42.766Z,15.80
2024-01-18T01:54:42.778Z,14.30
2024-01-18T01:55:42.744Z,12.30
2024-01-18T01:56:42.751Z,11.80
2024-01-18T01:57:42.822Z,13.70
2024-01-18T01:58:42.718Z,14.10
2024-01-18T01:59:42.702Z,14.80
2024-01-18T02:00:42.853Z,16.00
2024-01-18T02:01:42.699Z,15.30
2024-01-18T02:02:42.678Z,14.10
2024-01-18T02:03:42.722Z,14.90
2024-01-18T02:04:42.695Z,14.20
2024-01-18T02:05:42.676Z,15.10
2024-01-18T02:06:42.669Z,15.80
2024-01-18T02:07:42.644Z,16.40
2024-01-18T02:08:42.630Z,14.90
2024-01-18T02:09:42.735Z,14.90
2024-01-18T02:10:42.606Z,14.30
2024-01-18T02:11:42.596Z,14.80
2024-01-18T02:12:42.598Z,15.30
2024-01-18T02:13:42.558Z,15.60
2024-01-18T02:14:42.565Z,15.40
2024-01-18T02:15:42.610Z,14.50
2024-01-18T02:16:42.543Z,13.30
2024-01-18T02:17:42.563Z,13.60
2024-01-18T02:18:42.607Z,13.10
2024-01-18T02:19:42.547Z,13.40
2024-01-18T02:20:44.678Z,12.00
2024-01-18T02:21:42.489Z,12.60
2024-01-18T02:22:42.478Z,12.50
2024-01-18T02:23:42.466Z,12.70
2024-01-18T02:24:42.492Z,12.80
2024-01-18T02:25:42.435Z,12.70
2024-01-18T02:26:42.440Z,11.70
2024-01-18T02:27:42.476Z,12.70
2024-01-18T02:28:42.414Z,12.40
2024-01-18T02:29:42.412Z,11.20
2024-01-18T02:30:42.516Z,10.90
2024-01-18T02:31:42.384Z,11.10
2024-01-18T02:32:42.393Z,10.50
2024-01-18T02:33:42.424Z,11.10
2024-01-18T02:34:42.474Z,10.60
2024-01-18T02:35:42.353Z,11.60
2024-01-18T02:36:42.340Z,12.10
2024-01-18T02:37:42.308Z,11.70
2024-01-18T02:38:42.301Z,11.80
2024-01-18T02:39:42.353Z,11.80
2024-01-18T02:40:42.295Z,10.40
2024-01-18T02:41:42.466Z,11.10
2024-01-18T02:42:42.293Z,11.30
2024-01-18T02:43:42.312Z,11.60
2024-01-18T02:44:42.249Z,11.60
2024-01-18T02:45:42.376Z,11.70
2024-01-18T02:46:42.228Z,11.50
2024-01-18T02:47:42.254Z,12.10
2024-01-18T02:48:42.245Z,11.10
2024-01-18T02:49:42.304Z,11.40
2024-01-18T02:50:42.169Z,12.10
2024-01-18T02:51:42.211Z,12.00
2024-01-18T02:52:42.160Z,11.80
2024-01-18T02:53:42.148Z,12.50
2024-01-18T02:54:42.155Z,12.10
2024-01-18T02:55:42.122Z,12.80
2024-01-18T02:56:42.118Z,12.20
2024-01-18T02:57:42.106Z,13.00
2024-01-18T02:58:42.090Z,12.50
2024-01-18T02:59:42.101Z,12.50
2024-01-18T03:00:42.108Z,11.20
2024-01-18T03:01:42.058Z,11.90
2024-01-18T03:02:42.042Z,10.50
2024-01-18T03:03:42.080Z,11.60
2024-01-18T03:04:42.111Z,11.30
2024-01-18T03:05:42.018Z,12.10
2024-01-18T03:06:42.139Z,11.20
2024-01-18T03:07:42.022Z,12.40
2024-01-18T03:08:42.002Z,11.80
2024-01-18T03:09:42.135Z,11.50
2024-01-18T03:10:41.977Z,11.40
2024-01-18T03:11:41.964Z,11.40
2024-01-18T03:12:41.978Z,11.10
2024-01-18T03:13:41.947Z,11.50
2024-01-18T03:14:41.953Z,11.00
2024-01-18T03:15:42.031Z,10.90
2024-01-18T03:16:41.897Z,11.70
2024-01-18T03:17:41.925Z,10.70
2024-01-18T03:18:41.969Z,11.00
2024-01-18T03:19:41.883Z,10.40
2024-01-18T03:20:41.861Z,11.30
2024-01-18T03:21:41.909Z,11.10
2024-01-18T03:22:41.833Z,11.20
2024-01-18T03:23:41.844Z,11.60
2024-01-18T03:24:41.876Z,11.10
2024-01-18T03:25:41.803Z,11.30
2024-01-18T03:26:41.798Z,10.90
2024-01-18T03:27:41.818Z,11.40
2024-01-18T03:28:41.786Z,12.00
2024-01-18T03:29:41.794Z,11.70
2024-01-18T03:30:41.919Z,10.80
2024-01-18T03:31:41.746Z,10.10
2024-01-18T03:32:41.769Z,10.50
2024-01-18T03:33:41.794Z,11.30
2024-01-18T03:34:41.829Z,11.50
2024-01-18T03:35:41.703Z,11.20
2024-01-18T03:36:41.823Z,11.80
2024-01-18T03:37:41.689Z,11.00
2024-01-18T03:38:41.676Z,11.30
2024-01-18T03:39:41.697Z,11.60
2024-01-18T03:40:41.654Z,11.40
2024-01-18T03:41:41.641Z,11.20
2024-01-18T03:42:41.690Z,11.60
2024-01-18T03:43:41.633Z,11.20
2024-01-18T03:44:41.627Z,11.10
2024-01-18T03:45:41.705Z,10.60
2024-01-18T03:46:41.625Z,11.10
2024-01-18T03:47:42.226Z,11.80
2024-01-18T03:48:41.660Z,10.90
2024-01-18T03:49:41.605Z,10.90
2024-01-18T03:50:41.562Z,10.90
2024-01-18T03:51:41.631Z,10.80
2024-01-18T03:52:41.532Z,10.50
2024-01-18T03:53:41.517Z,10.80
2024-01-18T03:54:41.587Z,10.80
2024-01-18T03:55:41.511Z,10.30
2024-01-18T03:56:41.506Z,11.10
2024-01-18T03:57:41.653Z,10.50
2024-01-18T03:58:41.490Z,10.70
2024-01-18T03:59:41.456Z,10.90
2024-01-18T04:00:41.554Z,11.00
2024-01-18T04:01:41.525Z,11.40
2024-01-18T04:02:41.446Z,11.40
2024-01-18T04:03:41.482Z,12.50
2024-01-18T04:04:41.409Z,14.40
2024-01-18T04:05:41.451Z,13.80
2024-01-18T04:06:41.453Z,13.60
2024-01-18T04:07:41.376Z,13.40
2024-01-18T04:08:41.391Z,12.20
2024-01-18T04:09:41.364Z,12.30
2024-01-18T04:10:41.366Z,11.30
2024-01-18T04:11:41.346Z,11.40
2024-01-18T04:12:41.449Z,11.30
2024-01-18T04:13:41.337Z,11.50
2024-01-18T04:14:41.322Z,11.30
2024-01-18T04:15:41.377Z,11.50
2024-01-18T04:16:41.295Z,11.50
2024-01-18T04:17:41.312Z,11.30
2024-01-18T04:18:41.348Z,10.60
2024-01-18T04:19:41.476Z,11.10
2024-01-18T04:20:41.243Z,10.80
2024-01-18T04:21:41.327Z,11.00
2024-01-18T04:22:41.224Z,11.20
2024-01-18T04:23:41.213Z,11.30
2024-01-18T04:24:41.255Z,11.70
2024-01-18T04:25:41.185Z,11.70
2024-01-18T04:26:41.179Z,11.80
2024-01-18T04:27:41.244Z,11.70
2024-01-18T04:28:41.215Z,10.90
2024-01-18T04:29:41.163Z,12.10
2024-01-18T04:30:41.157Z,12.00
2024-01-18T04:31:41.130Z,11.00
2024-01-18T04:32:41.134Z,12.00
2024-01-18T04:33:41.138Z,12.20
2024-01-18T04:34:41.152Z,11.40
2024-01-18T04:35:41.083Z,12.70
2024-01-18T04:36:41.129Z,11.10
2024-01-18T04:37:41.083Z,11.30
2024-01-18T04:38:41.078Z,12.00
2024-01-18T04:39:41.110Z,12.10
2024-01-18T04:40:41.046Z,12.50
2024-01-18T04:41:41.029Z,11.80
2024-01-18T04:42:41.210Z,12.00
2024-01-18T04:43:41.022Z,11.90
2024-01-18T04:44:41.031Z,12.50
2024-01-18T04:45:41.091Z,13.60
2024-01-18T04:46:40.978Z,21.80
2024-01-18T04:47:40.993Z,19.90
2024-01-18T04:48:40.973Z,15.70
2024-01-18T04:49:40.981Z,15.40
2024-01-18T04:50:40.971Z,14.80
2024-01-18T04:51:41.001Z,14.30
2024-01-18T04:52:40.919Z,14.00
2024-01-18T04:53:40.941Z,13.10
2024-01-18T04:54:41.071Z,14.50
2024-01-18T04:55:40.885Z,16.10
2024-01-18T04:56:40.873Z,15.20
2024-01-18T04:57:40.912Z,15.70
2024-01-18T04:58:42.900Z,16.10
2024-01-18T04:59:40.839Z,14.90
2024-01-18T05:00:40.917Z,14.40
2024-01-18T05:01:41.062Z,14.40
2024-01-18T05:02:40.882Z,14.00
2024-01-18T05:03:40.888Z,14.70
2024-01-18T05:04:40.988Z,14.70
2024-01-18T05:05:40.817Z,14.20
2024-01-18T05:06:40.858Z,14.60
2024-01-18T05:07:40.879Z,13.70
2024-01-18T05:08:40.752Z,13.20
2024-01-18T05:09:40.809Z,12.90
2024-01-18T05:10:40.721Z,13.50
2024-01-18T05:11:40.717Z,13.80
2024-01-18T05:12:40.758Z,14.60
2024-01-18T05:13:40.688Z,13.60
2024-01-18T05:14:40.683Z,15.00
2024-01-18T05:15:40.700Z,13.80
2024-01-18T05:16:40.718Z,13.90
2024-01-18T05:17:40.675Z,14.80
2024-01-18T05:18:40.672Z,13.30
2024-01-18T05:19:40.693Z,13.80
2024-01-18T05:20:40.622Z,15.00
2024-01-18T05:21:40.683Z,14.20
2024-01-18T05:22:40.599Z,14.10
2024-01-18T05:23:40.587Z,13.80
2024-01-18T05:24:40.610Z,14.00
2024-01-18T05:25:40.559Z,14.90
2024-01-18T05:26:40.582Z,14.60
2024-01-18T05:27:40.668Z,15.40
2024-01-18T05:28:40.533Z,15.70
2024-01-18T05:29:40.520Z,15.90
2024-01-18T05:30:40.607Z,16.10
2024-01-18T05:31:40.514Z,15.00
2024-01-18T05:32:40.532Z,15.10
2024-01-18T05:33:40.606Z,16.00
2024-01-18T05:34:40.537Z,17.50
2024-01-18T05:35:40.480Z,16.30
2024-01-18T05:36:40.501Z,17.10
2024-01-18T05:37:40.445Z,16.40
2024-01-18T05:38:42.159Z,15.10
2024-01-18T05:39:40.542Z,15.10
2024-01-18T05:40:40.435Z,14.40
2024-01-18T05:41:40.401Z,16.00
2024-01-18T05:42:40.564Z,14.80
2024-01-18T05:43:40.384Z,15.30
2024-01-18T05:44:40.386Z,15.80
2024-01-18T05:45:40.451Z,16.00
2024-01-18T05:46:40.353Z,16.40
2024-01-18T05:47:40.379Z,15.20
2024-01-18T05:48:40.413Z,15.80
2024-01-18T05:49:40.354Z,15.40
2024-01-18T05:50:40.306Z,16.10
2024-01-18T05:51:43.854Z,15.80
2024-01-18T05:52:40.329Z,15.80
2024-01-18T05:53:40.289Z,15.20
2024-01-18T05:54:40.381Z,16.10
2024-01-18T05:55:40.261Z,15.30
2024-01-18T05:56:40.245Z,16.00
2024-01-18T05:57:40.506Z,16.70
2024-01-18T05:58:41.197Z,16.70
2024-01-18T05:59:40.239Z,16.30
2024-01-18T06:00:40.293Z,16.60
2024-01-18T06:01:40.212Z,17.00
2024-01-18T06:02:40.182Z,16.70
2024-01-18T06:03:40.202Z,16.00
2024-01-18T06:04:40.179Z,16.90
2024-01-18T06:05:40.147Z,17.10
2024-01-18T06:06:40.184Z,16.60
2024-01-18T06:07:40.188Z,17.40
2024-01-18T06:08:40.134Z,16.60
2024-01-18T06:09:40.219Z,16.80
2024-01-18T06:10:40.102Z,17.00
2024-01-18T06:11:40.079Z,17.50
2024-01-18T06:12:40.227Z,16.50
2024-01-18T06:13:40.083Z,17.20
2024-01-18T06:14:40.060Z,16.30
2024-01-18T06:15:40.094Z,17.70
2024-01-18T06:16:40.111Z,17.10
2024-01-18T06:17:40.104Z,17.00
2024-01-18T06:18:40.330Z,17.50
2024-01-18T06:19:40.148Z,18.00
2024-01-18T06:20:40.004Z,18.30
2024-01-18T06:21:40.034Z,17.10
2024-01-18T06:22:39.983Z,16.30
2024-01-18T06:23:39.950Z,16.70
2024-01-18T06:24:40.000Z,16.80
2024-01-18T06:25:39.964Z,17.30
2024-01-18T06:26:39.973Z,19.30
2024-01-18T06:27:40.050Z,18.50
2024-01-18T06:28:39.901Z,18.90
2024-01-18T06:29:40.009Z,19.40
2024-01-18T06:30:40.027Z,19.10
2024-01-18T06:31:39.944Z,18.70
2024-01-18T06:32:39.905Z,18.10
2024-01-18T06:33:39.928Z,18.00
2024-01-18T06:34:39.938Z,18.60
2024-01-18T06:35:39.831Z,18.30
2024-01-18T06:36:39.911Z,18.90
2024-01-18T06:37:39.811Z,18.20
2024-01-18T06:38:39.812Z,18.50
2024-01-18T06:39:39.843Z,18.60
2024-01-18T06:40:41.912Z,19.80
2024-01-18T06:41:39.785Z,18.40
2024-01-18T06:42:39.847Z,19.80
2024-01-18T06:43:39.766Z,20.60
2024-01-18T06:44:39.742Z,20.40
2024-01-18T06:45:39.779Z,20.10
2024-01-18T06:46:39.748Z,20.70
2024-01-18T06:47:39.777Z,19.30
2024-01-18T06:48:39.840Z,24.20
2024-01-18T06:49:39.731Z,22.50
2024-01-18T06:50:39.699Z,21.20
2024-01-18T06:51:39.697Z,19.70
2024-01-18T06:52:39.941Z,18.00
2024-01-18T06:53:39.648Z,19.70
2024-01-18T06:54:40.098Z,20.10
2024-01-18T06:55:39.643Z,19.50
2024-01-18T06:56:39.618Z,19.50
2024-01-18T06:57:39.647Z,18.50
2024-01-18T06:58:39.602Z,18.90
2024-01-18T06:59:39.600Z,18.30
2024-01-18T07:00:39.634Z,19.10
2024-01-18T07:01:39.610Z,20.10
2024-01-18T07:02:39.565Z,18.80
2024-01-18T07:03:39.618Z,19.80
2024-01-18T07:04:39.657Z,19.40
2024-01-18T07:05:39.532Z,22.40
2024-01-18T07:06:54.551Z,21.00
2024-01-18T07:07:39.544Z,20.40
2024-01-18T07:08:39.562Z,18.50
2024-01-18T07:09:39.565Z,18.60
2024-01-18T07:10:39.478Z,18.90
2024-01-18T07:11:39.474Z,20.20
2024-01-18T07:12:39.589Z,18.60
2024-01-18T07:13:39.605Z,18.80
2024-01-18T07:14:39.442Z,19.30
2024-01-18T07:15:39.552Z,19.00
2024-01-18T07:16:39.412Z,19.60
2024-01-18T07:17:39.438Z,18.60
2024-01-18T07:18:39.558Z,18.20
2024-01-18T07:19:40.815Z,18.30
2024-01-18T07:20:39.511Z,18.10
2024-01-18T07:21:39.376Z,18.30
2024-01-18T07:22:39.368Z,19.40
2024-01-18T07:23:39.364Z,19.00
2024-01-18T07:24:39.412Z,18.40
2024-01-18T07:25:39.347Z,18.00
2024-01-18T07:26:39.311Z,18.90
2024-01-18T07:27:39.361Z,17.60
2024-01-18T07:28:39.296Z,17.20
2024-01-18T07:29:39.284Z,18.40
2024-01-18T07:30:39.303Z,17.70
2024-01-18T07:31:39.313Z,18.30
2024-01-18T07:32:39.323Z,17.70
2024-01-18T07:33:39.393Z,18.20
2024-01-18T07:34:39.413Z,17.70
2024-01-18T07:35:39.217Z,18.20
2024-01-18T07:36:39.286Z,17.50
2024-01-18T07:37:39.208Z,17.50
2024-01-18T07:38:39.185Z,18.50
2024-01-18T07:39:39.252Z,17.60
2024-01-18T07:40:39.172Z,17.20
2024-01-18T07:41:39.172Z,19.00
2024-01-18T07:42:41.604Z,19.30
2024-01-18T07:43:39.134Z,19.80
2024-01-18T07:44:39.128Z,20.50
2024-01-18T07:45:39.195Z,20.70
2024-01-18T07:46:39.122Z,18.80
2024-01-18T07:47:39.125Z,18.60
2024-01-18T07:48:39.127Z,17.70
2024-01-18T07:49:39.149Z,16.60
2024-01-18T07:50:39.198Z,18.00
2024-01-18T07:51:39.166Z,17.80
2024-01-18T07:52:39.044Z,18.20
2024-01-18T07:53:39.049Z,18.50
2024-01-18T07:54:39.126Z,18.00
2024-01-18T07:55:39.060Z,17.60
2024-01-18T07:56:39.013Z,17.50
2024-01-18T07:57:40.249Z,18.30
2024-01-18T07:58:39.002Z,16.40
2024-01-18T07:59:38.990Z,18.10
2024-01-18T08:00:39.065Z,18.00
2024-01-18T08:01:40.382Z,17.40
2024-01-18T08:02:38.963Z,17.00
2024-01-18T08:03:38.999Z,16.90
2024-01-18T08:04:38.988Z,17.60
2024-01-18T08:05:38.996Z,16.70
2024-01-18T08:06:39.043Z,17.20
2024-01-18T08:07:38.918Z,19.80
2024-01-18T08:08:38.886Z,18.70
2024-01-18T08:09:38.944Z,17.30
2024-01-18T08:10:38.880Z,18.30
2024-01-18T08:11:38.927Z,18.20
2024-01-18T08:12:39.121Z,17.20
2024-01-18T08:13:38.866Z,19.10
2024-01-18T08:14:38.992Z,17.80
2024-01-18T08:15:38.898Z,17.70
2024-01-18T08:16:38.809Z,17.60
2024-01-18T08:17:38.903Z,17.80
2024-01-18T08:18:38.942Z,19.20
2024-01-18T08:19:38.874Z,17.80
2024-01-18T08:20:38.783Z,18.80
2024-01-18T08:21:38.807Z,19.10
2024-01-18T08:22:38.745Z,17.40
2024-01-18T08:23:38.808Z,18.20
2024-01-18T08:24:38.770Z,19.10
2024-01-18T08:25:38.708Z,17.50
2024-01-18T08:26:41.508Z,18.10
2024-01-18T08:27:38.720Z,17.40
2024-01-18T08:28:38.715Z,16.50
2024-01-18T08:29:38.683Z,17.00
2024-01-18T08:30:38.750Z,15.70
2024-01-18T08:31:38.695Z,15.70
2024-01-18T08:32:38.748Z,16.10
2024-01-18T08:33:38.668Z,16.60
2024-01-18T08:34:38.637Z,16.40
2024-01-18T08:35:38.615Z,16.90
2024-01-18T08:36:38.723Z,16.60
2024-01-18T08:37:38.754Z,17.10
2024-01-18T08:38:38.599Z,16.10
2024-01-18T08:39:38.605Z,16.50
2024-01-18T08:40:38.581Z,16.50
2024-01-18T08:42:41.201Z,17.30
2024-01-18T08:43:38.553Z,16.40
2024-01-18T08:44:38.544Z,16.60
2024-01-18T08:45:38.543Z,16.90
2024-01-18T08:46:38.513Z,17.00
2024-01-18T08:47:38.523Z,18.30
2024-01-18T08:48:38.542Z,17.50
2024-01-18T08:49:38.496Z,22.00
2024-01-18T08:50:38.792Z,22.60
2024-01-18T08:51:38.551Z,21.80
2024-01-18T08:52:38.451Z,19.70
2024-01-18T08:53:38.427Z,18.60
2024-01-18T08:54:38.425Z,18.90
2024-01-18T08:56:01.323Z,19.20
2024-01-18T08:56:38.530Z,20.10
2024-01-18T08:57:56.615Z,19.90
2024-01-18T08:58:38.960Z,19.00
2024-01-18T08:59:38.431Z,17.10
2024-01-18T09:00:48.941Z,14.40
2024-01-18T09:01:44.137Z,14.60
2024-01-18T09:02:38.344Z,14.30
2024-01-18T09:03:38.448Z,16.10
2024-01-18T09:04:38.338Z,17.30
2024-01-18T09:05:38.301Z,16.50
2024-01-18T09:06:39.175Z,18.10
2024-01-18T09:07:38.510Z,19.80
2024-01-18T09:08:38.294Z,16.30
2024-01-18T09:09:38.302Z,14.80
2024-01-18T09:10:38.345Z,15.60
2024-01-18T09:11:38.303Z,14.80
2024-01-18T09:12:38.414Z,15.70
2024-01-18T09:13:38.266Z,15.70
2024-01-18T09:14:38.280Z,14.40
2024-01-18T09:15:38.341Z,15.50
2024-01-18T09:16:38.261Z,15.60
2024-01-18T09:17:38.245Z,15.60
2024-01-18T09:18:38.220Z,16.50
2024-01-18T09:19:38.332Z,16.20
2024-01-18T09:20:38.207Z,16.70
2024-01-18T09:21:38.193Z,21.60
2024-01-18T09:22:38.130Z,15.90
2024-01-18T09:23:38.116Z,16.60
2024-01-18T09:24:38.143Z,15.80
2024-01-18T09:25:38.115Z,18.30
2024-01-18T09:26:38.096Z,18.10
2024-01-18T09:27:38.119Z,17.10
2024-01-18T09:28:38.069Z,21.30
2024-01-18T09:29:38.065Z,18.10
2024-01-18T09:30:41.139Z,21.80
2024-01-18T09:31:42.789Z,18.40
2024-01-18T09:32:38.077Z,20.30
2024-01-18T09:33:38.199Z,17.50
2024-01-18T09:34:38.028Z,16.00
2024-01-18T09:35:38.121Z,14.50
2024-01-18T09:36:38.130Z,15.50
2024-01-18T09:37:37.975Z,16.20
2024-01-18T09:38:37.988Z,15.10
2024-01-18T09:39:38.025Z,15.70
2024-01-18T09:40:37.984Z,16.10
2024-01-18T09:41:37.936Z,14.80
2024-01-18T09:42:38.025Z,18.60
2024-01-18T09:43:37.953Z,14.50
2024-01-18T09:44:38.029Z,14.80
2024-01-18T09:45:38.057Z,18.70
2024-01-18T09:46:37.880Z,22.70
2024-01-18T09:47:37.908Z,26.80
2024-01-18T09:48:37.926Z,19.00
2024-01-18T09:49:37.945Z,17.30
2024-01-18T09:50:37.921Z,15.20
2024-01-18T09:51:37.905Z,18.00
2024-01-18T09:52:37.817Z,16.40
2024-01-18T09:53:37.819Z,14.50
2024-01-18T09:54:41.108Z,13.50
2024-01-18T09:55:47.100Z,14.60
2024-01-18T09:56:37.775Z,13.70
2024-01-18T09:57:37.786Z,17.80
2024-01-18T09:58:37.761Z,14.90
2024-01-18T09:59:37.750Z,15.00
2024-01-18T10:00:37.874Z,14.80
2024-01-18T10:01:37.722Z,14.40
2024-01-18T10:02:37.721Z,14.50
2024-01-18T10:03:37.879Z,15.20
2024-01-18T10:06:25.926Z,14.00
2024-01-18T10:07:05.295Z,14.90
2024-01-18T10:08:03.936Z,15.30
2024-01-18T10:09:24.908Z,15.20
2024-01-18T10:10:03.790Z,15.90
2024-01-18T10:11:03.627Z,14.30
2024-01-18T10:12:03.615Z,15.40
2024-01-18T10:13:03.683Z,15.20
2024-01-18T10:14:03.601Z,13.60
2024-01-18T10:15:03.588Z,14.30
2024-01-18T10:16:03.583Z,14.10
2024-01-18T10:17:03.605Z,14.20
2024-01-18T10:18:03.599Z,14.20
2024-01-18T10:19:03.723Z,14.40
2024-01-18T10:20:03.622Z,13.80
2024-01-18T10:21:03.547Z,14.80
2024-01-18T10:22:03.546Z,14.60
2024-01-18T10:23:04.399Z,18.80
2024-01-18T10:24:03.539Z,18.80
2024-01-18T10:25:03.608Z,15.80
2024-01-18T10:26:03.507Z,15.30
2024-01-18T10:27:03.484Z,14.80
2024-01-18T10:28:03.459Z,15.50
2024-01-18T10:29:04.693Z,15.50
2024-01-18T10:32:12.633Z,15.10
2024-01-18T10:32:36.987Z,16.10
2024-01-18T10:33:37.042Z,16.10
2024-01-18T10:34:37.041Z,14.50
2024-01-18T10:35:48.211Z,15.70
2024-01-18T10:36:37.044Z,20.90
2024-01-18T10:37:36.962Z,25.10
2024-01-18T10:38:38.577Z,16.50
2024-01-18T10:39:36.988Z,15.80
2024-01-18T10:40:36.963Z,17.10
2024-01-18T10:41:36.985Z,17.40
2024-01-18T10:42:36.900Z,15.70
2024-01-18T10:43:36.906Z,15.60
2024-01-18T10:44:36.889Z,15.40
2024-01-18T10:45:37.062Z,17.30
2024-01-18T10:46:36.945Z,25.60
2024-01-18T10:47:36.994Z,24.10
2024-01-18T10:48:36.899Z,31.10
2024-01-18T10:49:36.926Z,31.80
2024-01-18T10:50:37.028Z,22.30
2024-01-18T10:51:36.940Z,40.10
2024-01-18T10:52:36.845Z,27.60
2024-01-18T10:53:36.826Z,22.50
2024-01-18T10:54:38.611Z,20.50
2024-01-18T10:55:37.282Z,19.60
2024-01-18T10:56:36.815Z,24.90
2024-01-18T10:57:36.843Z,25.10
2024-01-18T10:58:36.779Z,23.40
2024-01-18T10:59:36.727Z,16.70
2024-01-18T11:00:36.881Z,15.90
2024-01-18T11:01:36.773Z,16.50
2024-01-18T11:02:36.726Z,16.80
2024-01-18T11:03:36.775Z,16.10
2024-01-18T11:04:36.901Z,15.90
2024-01-18T11:05:36.691Z,15.90
2024-01-18T11:06:36.930Z,16.90
2024-01-18T11:07:36.720Z,17.90
2024-01-18T11:08:36.663Z,22.10
2024-01-18T11:09:36.744Z,26.80
2024-01-18T11:10:36.646Z,32.80
2024-01-18T11:11:36.632Z,25.60
2024-01-18T11:12:36.658Z,18.10
2024-01-18T11:13:36.684Z,14.70
2024-01-18T11:14:36.648Z,15.50
2024-01-18T11:15:36.721Z,21.40
2024-01-18T11:16:36.631Z,20.10
2024-01-18T11:17:36.590Z,16.10
2024-01-18T11:18:36.713Z,15.40
2024-01-18T11:19:36.581Z,15.40
2024-01-18T11:20:36.626Z,14.50
2024-01-18T11:21:36.615Z,15.40
2024-01-18T11:22:36.534Z,15.80
2024-01-18T11:23:36.579Z,14.80
2024-01-18T11:24:36.526Z,15.40
2024-01-18T11:25:36.484Z,16.60
2024-01-18T11:26:36.480Z,17.00
2024-01-18T11:27:36.554Z,16.60
2024-01-18T11:28:40.769Z,17.10
2024-01-18T11:29:36.498Z,17.20
2024-01-18T11:30:37.009Z,16.80
2024-01-18T11:31:36.469Z,16.20
2024-01-18T11:32:36.485Z,16.90
2024-01-18T11:33:36.401Z,17.20
2024-01-18T11:34:36.378Z,17.30
2024-01-18T11:35:36.419Z,26.20
2024-01-18T11:36:36.371Z,24.40
2024-01-18T11:37:36.345Z,25.50
2024-01-18T11:38:36.286Z,17.30
2024-01-18T11:39:36.350Z,17.50
2024-01-18T11:40:36.289Z,15.80
2024-01-18T11:41:36.253Z,18.30
2024-01-18T11:42:36.335Z,20.40
2024-01-18T11:43:36.258Z,19.30
2024-01-18T11:44:36.259Z,16.30
2024-01-18T11:45:38.848Z,15.80
2024-01-18T11:46:36.250Z,19.50
2024-01-18T11:47:36.244Z,19.90
2024-01-18T11:48:36.217Z,19.40
2024-01-18T11:49:36.204Z,16.60
2024-01-18T11:50:36.176Z,17.10
2024-01-18T11:51:36.289Z,16.40
2024-01-18T11:52:36.161Z,16.40
2024-01-18T11:53:36.135Z,16.80
2024-01-18T11:54:36.156Z,16.60
2024-01-18T11:55:36.116Z,16.40
2024-01-18T11:56:36.191Z,16.20
2024-01-18T11:57:36.173Z,18.90
2024-01-18T11:58:36.209Z,19.60
2024-01-18T11:59:36.204Z,23.00
2024-01-18T12:00:36.729Z,21.70
2024-01-18T12:01:36.286Z,20.80
2024-01-18T12:02:36.107Z,19.10
2024-01-18T12:03:36.176Z,20.30
2024-01-18T12:04:36.240Z,19.70
2024-01-18T12:05:36.069Z,16.80
2024-01-18T12:06:36.173Z,16.60
2024-01-18T12:07:36.616Z,18.20
2024-01-18T12:08:36.062Z,18.30
2024-01-18T12:09:36.115Z,16.40
2024-01-18T12:10:36.105Z,15.60
2024-01-18T12:11:36.245Z,15.90
2024-01-18T12:12:36.119Z,16.60
2024-01-18T12:13:36.015Z,14.70
2024-01-18T12:14:36.001Z,16.40
2024-01-18T12:15:36.070Z,16.40
2024-01-18T12:16:35.947Z,18.90
2024-01-18T12:17:35.958Z,18.80
2024-01-18T12:18:35.963Z,19.10
2024-01-18T12:19:35.979Z,17.80
2024-01-18T12:20:35.929Z,17.50
2024-01-18T12:21:36.048Z,16.70
2024-01-18T12:22:35.885Z,16.20
2024-01-18T12:23:35.817Z,15.70
2024-01-18T12:24:35.867Z,15.60
2024-01-18T12:25:35.798Z,18.00
2024-01-18T12:26:35.785Z,18.80
2024-01-18T12:27:35.800Z,16.00
2024-01-18T12:28:35.756Z,17.00
2024-01-18T12:29:35.763Z,16.00
2024-01-18T12:30:36.511Z,17.10
2024-01-18T12:31:35.726Z,16.60
2024-01-18T12:32:35.781Z,18.10
2024-01-18T12:33:35.814Z,16.50
2024-01-18T12:34:35.795Z,18.40
2024-01-18T12:35:35.681Z,16.80
2024-01-18T12:36:35.813Z,15.30
2024-01-18T12:37:35.693Z,15.90
2024-01-18T12:38:35.650Z,16.30
2024-01-18T12:39:35.765Z,17.00
2024-01-18T12:40:35.633Z,15.40
2024-01-18T12:41:35.614Z,16.00
2024-01-18T12:42:35.669Z,15.60
2024-01-18T12:43:35.616Z,17.00
2024-01-18T12:44:35.597Z,15.10
2024-01-18T12:45:35.646Z,15.70
2024-01-18T12:46:35.565Z,16.90
2024-01-18T12:47:35.589Z,16.20
2024-01-18T12:48:35.652Z,16.60
2024-01-18T12:49:36.127Z,17.90
2024-01-18T12:50:35.527Z,15.90
2024-01-18T12:51:35.554Z,16.50
2024-01-18T12:52:35.503Z,17.00
2024-01-18T12:53:35.513Z,16.70
2024-01-18T12:54:35.511Z,16.90
2024-01-18T12:55:35.471Z,15.70
2024-01-18T12:56:35.471Z,17.00